createdAt,value
2023-05-04T00:00:27.474Z,10.00
2023-05-04T00:04:28.672Z,10.30
2023-05-04T00:08:30.755Z,10.20
2023-05-04T00:12:31.820Z,9.90
2023-05-04T00:16:34.887Z,9.80
2023-05-04T00:20:36.338Z,9.70
2023-05-04T00:24:38.028Z,9.80
2023-05-04T00:28:39.157Z,9.80
2023-05-04T00:32:40.187Z,9.40
2023-05-04T00:36:42.027Z,9.80
2023-05-04T00:40:43.126Z,9.60
2023-05-04T00:44:44.228Z,9.60
2023-05-04T00:48:48.251Z,9.60
2023-05-04T00:52:50.282Z,9.40
2023-05-04T00:56:51.382Z,9.10
2023-05-04T01:00:52.439Z,9.10
2023-05-04T01:04:53.811Z,9.30
2023-05-04T01:09:01.771Z,9.20
2023-05-04T01:13:14.574Z,9.00
2023-05-04T01:17:15.937Z,9.20
2023-05-04T01:21:17.059Z,9.20
2023-05-04T01:25:18.546Z,9.00
2023-05-04T01:29:29.435Z,9.00
2023-05-04T01:33:31.082Z,8.80
2023-05-04T01:37:32.072Z,8.80
2023-05-04T01:41:33.196Z,8.80
2023-05-04T01:45:34.153Z,8.60
2023-05-04T01:49:35.373Z,8.50
2023-05-04T01:53:36.404Z,8.60
2023-05-04T01:57:37.522Z,8.70
2023-05-04T02:01:38.689Z,8.30
2023-05-04T02:05:40.050Z,8.50
2023-05-04T02:09:41.294Z,8.40
2023-05-04T02:13:42.509Z,7.80
2023-05-04T02:17:43.955Z,8.40
2023-05-04T02:21:45.361Z,8.60
2023-05-04T02:25:46.369Z,8.40
2023-05-04T02:29:47.350Z,8.20
2023-05-04T02:33:50.169Z,8.30
2023-05-04T02:37:51.159Z,8.30
2023-05-04T02:41:52.276Z,8.50
2023-05-04T02:45:53.374Z,8.40
2023-05-04T02:49:54.314Z,8.50
2023-05-04T02:53:55.447Z,8.40
2023-05-04T02:57:56.370Z,8.20
2023-05-04T03:01:57.495Z,8.30
2023-05-04T03:05:58.444Z,7.90
2023-05-04T03:09:59.560Z,8.40
2023-05-04T03:14:00.865Z,8.00
2023-05-04T03:18:01.915Z,8.00
2023-05-04T03:22:03.020Z,8.50
2023-05-04T03:26:04.415Z,8.70
2023-05-04T03:30:06.587Z,8.50
2023-05-04T03:34:09.459Z,8.50
2023-05-04T03:38:10.937Z,8.50
2023-05-04T03:42:12.027Z,8.30
2023-05-04T03:46:13.208Z,8.50
2023-05-04T03:50:14.530Z,8.50
2023-05-04T03:54:15.489Z,8.40
2023-05-04T03:58:16.634Z,8.30
2023-05-04T04:02:17.845Z,8.40
2023-05-04T04:06:18.804Z,8.60
2023-05-04T04:10:19.860Z,8.60
2023-05-04T04:14:20.964Z,8.70
2023-05-04T04:18:23.525Z,8.10
2023-05-04T04:22:25.647Z,8.80
2023-05-04T04:26:27.605Z,9.10
2023-05-04T04:30:28.761Z,8.20
2023-05-04T04:34:29.982Z,9.40
2023-05-04T04:38:30.933Z,9.50
2023-05-04T04:42:32.160Z,9.60
2023-05-04T04:46:33.484Z,9.70
2023-05-04T04:50:39.735Z,9.70
2023-05-04T04:54:40.711Z,9.80
2023-05-04T04:58:41.824Z,9.80
2023-05-04T05:02:43.008Z,10.40
2023-05-04T05:06:44.154Z,10.50
2023-05-04T05:10:45.171Z,10.60
2023-05-04T05:14:46.603Z,10.60
2023-05-04T05:18:47.731Z,10.00
2023-05-04T05:22:48.925Z,10.00
2023-05-04T05:26:51.844Z,11.00
2023-05-04T05:30:52.858Z,11.20
2023-05-04T05:34:53.981Z,11.60
2023-05-04T05:38:55.104Z,12.00
2023-05-04T05:42:56.028Z,12.10
2023-05-04T05:46:57.131Z,12.60
2023-05-04T05:50:58.086Z,12.90
2023-05-04T05:55:01.671Z,13.40
2023-05-04T05:59:02.597Z,13.60
2023-05-04T06:03:03.917Z,13.70
2023-05-04T06:07:04.918Z,13.70
2023-05-04T06:11:06.337Z,14.10
2023-05-04T06:15:08.679Z,14.60
2023-05-04T06:19:10.074Z,15.00
2023-05-04T06:23:11.010Z,14.20
2023-05-04T06:27:12.120Z,14.80
2023-05-04T06:31:13.802Z,15.70
2023-05-04T06:35:15.052Z,16.50
2023-05-04T06:39:16.038Z,17.20
2023-05-04T06:43:17.156Z,16.90
2023-05-04T06:47:18.168Z,17.30
2023-05-04T06:51:20.486Z,17.90
2023-05-04T06:55:21.861Z,17.70
2023-05-04T06:59:22.987Z,16.60
2023-05-04T07:03:24.050Z,14.80
2023-05-04T07:07:25.142Z,15.20
2023-05-04T07:11:27.232Z,15.50
2023-05-04T07:15:28.742Z,16.50
2023-05-04T07:19:29.870Z,17.60
2023-05-04T07:23:30.911Z,18.60
2023-05-04T07:27:32.290Z,18.80
2023-05-04T07:31:34.324Z,18.40
2023-05-04T07:35:35.704Z,17.40
2023-05-04T07:39:38.159Z,16.70
2023-05-04T07:43:39.357Z,18.40
2023-05-04T07:47:40.883Z,18.60
2023-05-04T07:51:41.957Z,18.40
2023-05-04T07:55:43.134Z,18.50
2023-05-04T07:59:44.394Z,18.60
2023-05-04T08:03:45.775Z,18.00
2023-05-04T08:07:47.171Z,18.50
2023-05-04T08:11:48.648Z,17.90
2023-05-04T08:15:49.753Z,19.80
2023-05-04T08:19:50.783Z,19.30
2023-05-04T08:23:52.542Z,18.30
2023-05-04T08:27:53.717Z,18.90
2023-05-04T08:31:57.129Z,19.40
2023-05-04T08:35:58.379Z,19.60
2023-05-04T08:39:59.439Z,18.50
2023-05-04T08:44:00.686Z,19.20
2023-05-04T08:48:01.757Z,18.90
2023-05-04T08:52:06.738Z,19.10
2023-05-04T08:56:09.376Z,19.60
2023-05-04T09:00:16.087Z,19.90
2023-05-04T09:04:18.183Z,20.20
2023-05-04T09:08:20.445Z,19.40
2023-05-04T09:12:21.622Z,18.50
2023-05-04T09:16:22.791Z,19.40
2023-05-04T09:20:25.192Z,19.20
2023-05-04T09:24:30.122Z,19.90
2023-05-04T09:28:36.237Z,20.10
2023-05-04T09:32:47.863Z,20.60
2023-05-04T09:37:01.163Z,19.40
2023-05-04T09:41:02.335Z,19.60
2023-05-04T09:45:05.653Z,19.40
2023-05-04T09:49:07.304Z,19.30
2023-05-04T09:53:09.138Z,19.90
2023-05-04T09:57:16.440Z,21.00
2023-05-04T10:01:18.020Z,21.90
2023-05-04T10:05:20.982Z,19.10
2023-05-04T10:09:22.966Z,20.90
2023-05-04T10:13:25.923Z,20.50
2023-05-04T10:17:39.850Z,21.50
2023-05-04T10:21:47.762Z,20.80
2023-05-04T10:25:55.342Z,20.30
2023-05-04T10:29:56.669Z,20.60
2023-05-04T10:33:57.953Z,21.50
2023-05-04T10:37:59.457Z,22.10
2023-05-04T10:42:06.324Z,20.40
2023-05-04T10:46:20.921Z,19.40
2023-05-04T10:50:22.158Z,20.70
2023-05-04T10:54:23.312Z,21.60
2023-05-04T10:58:28.551Z,22.60
2023-05-04T11:02:31.768Z,22.60
2023-05-04T11:06:32.728Z,21.40
2023-05-04T11:10:33.824Z,20.00
2023-05-04T11:14:36.919Z,21.30
2023-05-04T11:18:40.476Z,23.00
2023-05-04T11:22:41.785Z,21.10
2023-05-04T11:26:49.017Z,21.50
2023-05-04T11:30:50.303Z,22.70
2023-05-04T11:34:51.264Z,20.70
2023-05-04T11:38:55.894Z,20.60
2023-05-04T11:42:58.889Z,22.30
2023-05-04T11:47:00.042Z,23.80
2023-05-04T11:51:04.752Z,22.30
2023-05-04T11:55:15.040Z,22.30
2023-05-04T11:59:16.158Z,22.30
2023-05-04T12:03:32.563Z,23.00
2023-05-04T12:07:29.115Z,22.60
2023-05-04T12:11:30.384Z,24.00
2023-05-04T12:15:34.291Z,25.60
2023-05-04T12:19:39.285Z,24.40
2023-05-04T12:23:41.252Z,24.20
2023-05-04T12:27:45.460Z,25.80
2023-05-04T12:31:46.700Z,26.60
2023-05-04T12:35:48.021Z,27.40
2023-05-04T12:39:49.036Z,26.50
2023-05-04T12:43:50.227Z,25.90
2023-05-04T12:47:51.220Z,25.50
2023-05-04T12:51:52.396Z,25.80
2023-05-04T12:55:53.842Z,27.70
2023-05-04T12:59:54.885Z,28.80
2023-05-04T13:03:56.369Z,26.90
2023-05-04T13:07:57.746Z,23.80
2023-05-04T13:11:58.828Z,25.30
2023-05-04T13:16:00.031Z,27.20
2023-05-04T13:20:01.621Z,26.50
2023-05-04T13:24:02.816Z,26.20
2023-05-04T13:28:03.862Z,25.50
2023-05-04T13:32:05.831Z,27.30
2023-05-04T13:36:07.060Z,27.80
2023-05-04T13:40:08.893Z,27.70
2023-05-04T13:44:09.840Z,29.10
2023-05-04T13:48:11.026Z,28.10
2023-05-04T13:52:12.956Z,25.90
2023-05-04T13:56:14.262Z,25.50
2023-05-04T14:00:17.851Z,25.30
2023-05-04T14:04:19.168Z,26.30
2023-05-04T14:08:20.287Z,25.50
2023-05-04T14:12:21.551Z,27.90
2023-05-04T14:16:22.778Z,24.50
2023-05-04T14:20:23.873Z,24.10
2023-05-04T14:24:25.485Z,24.90
2023-05-04T14:28:26.433Z,25.20
2023-05-04T14:32:27.633Z,25.80
2023-05-04T14:36:28.732Z,26.60
2023-05-04T14:40:30.257Z,24.90
2023-05-04T14:44:31.354Z,24.60
2023-05-04T14:48:32.322Z,24.50
2023-05-04T14:52:33.578Z,25.60
2023-05-04T14:56:34.708Z,26.80
2023-05-04T15:00:37.469Z,28.10
2023-05-04T15:04:38.484Z,27.20
2023-05-04T15:08:39.492Z,27.70
2023-05-04T15:12:40.690Z,25.30
2023-05-04T15:16:41.842Z,24.40
2023-05-04T15:20:42.925Z,23.30
2023-05-04T15:24:44.047Z,24.20
2023-05-04T15:28:45.085Z,23.10
2023-05-04T15:32:46.092Z,25.30
2023-05-04T15:36:47.030Z,25.20
2023-05-04T15:40:48.140Z,23.80
2023-05-04T15:44:49.146Z,23.50
2023-05-04T15:48:50.260Z,24.90
2023-05-04T15:52:52.262Z,25.00
2023-05-04T15:56:53.403Z,25.30
2023-05-04T16:00:54.640Z,26.30
2023-05-04T16:04:55.678Z,26.10
2023-05-04T16:08:56.882Z,26.10
2023-05-04T16:12:59.872Z,24.60
2023-05-04T16:17:01.575Z,24.90
2023-05-04T16:21:03.002Z,24.20
2023-05-04T16:25:04.739Z,24.50
2023-05-04T16:29:06.179Z,24.40
2023-05-04T16:33:07.304Z,22.60
2023-05-04T16:37:10.821Z,23.80
2023-05-04T16:41:11.546Z,23.20
2023-05-04T16:45:13.194Z,25.10
2023-05-04T16:49:14.879Z,22.40
2023-05-04T16:53:16.366Z,24.40
2023-05-04T16:57:17.386Z,23.10
2023-05-04T17:01:18.404Z,23.20
2023-05-04T17:05:20.047Z,23.60
2023-05-04T17:09:21.218Z,22.50
2023-05-04T17:13:22.416Z,22.00
2023-05-04T17:17:23.485Z,22.20
2023-05-04T17:21:24.676Z,22.80
2023-05-04T17:25:26.530Z,23.10
2023-05-04T17:29:27.622Z,23.60
2023-05-04T17:33:28.896Z,23.20
2023-05-04T17:37:30.129Z,22.80
2023-05-04T17:41:31.150Z,22.40
2023-05-04T17:45:33.485Z,22.10
2023-05-04T17:49:34.603Z,21.80
2023-05-04T17:53:35.613Z,22.70
2023-05-04T17:57:36.731Z,22.10
2023-05-04T18:01:38.243Z,22.80
2023-05-04T18:05:42.529Z,22.50
2023-05-04T18:09:43.713Z,22.30
2023-05-04T18:13:44.711Z,22.50
2023-05-04T18:17:46.017Z,21.40
2023-05-04T18:21:47.057Z,21.70
2023-05-04T18:25:48.215Z,21.80
2023-05-04T18:29:49.224Z,22.10
2023-05-04T18:33:50.380Z,22.20
2023-05-04T18:37:51.503Z,22.80
2023-05-04T18:41:52.603Z,22.20
2023-05-04T18:45:54.015Z,22.90
2023-05-04T18:49:55.758Z,21.50
2023-05-04T18:53:56.942Z,20.90
2023-05-04T18:58:00.534Z,20.80
2023-05-04T19:02:01.920Z,21.40
2023-05-04T19:06:03.245Z,21.70
2023-05-04T19:10:05.868Z,21.40
2023-05-04T19:14:06.983Z,21.20
2023-05-04T19:18:08.605Z,21.60
2023-05-04T19:22:11.157Z,21.40
2023-05-04T19:26:12.407Z,21.10
2023-05-04T19:30:13.890Z,21.10
2023-05-04T19:34:17.457Z,20.60
2023-05-04T19:38:17.743Z,20.70
2023-05-04T19:42:18.783Z,20.80
2023-05-04T19:46:20.780Z,20.50
2023-05-04T19:50:21.958Z,20.30
2023-05-04T19:54:23.080Z,20.00
2023-05-04T19:58:27.903Z,19.90
2023-05-04T20:02:29.303Z,19.10
2023-05-04T20:06:31.256Z,19.00
2023-05-04T20:10:32.274Z,18.90
2023-05-04T20:14:33.965Z,18.80
2023-05-04T20:18:35.572Z,16.80
2023-05-04T20:22:37.722Z,17.90
2023-05-04T20:26:39.369Z,18.10
2023-05-04T20:30:40.469Z,18.60
2023-05-04T20:34:42.558Z,19.00
2023-05-04T20:38:43.829Z,18.50
2023-05-04T20:42:45.038Z,18.70
2023-05-04T20:46:46.103Z,18.70
2023-05-04T20:50:47.103Z,18.80
2023-05-04T20:54:48.328Z,18.70
2023-05-04T20:58:49.998Z,17.90
2023-05-04T21:02:51.222Z,18.30
2023-05-04T21:06:52.626Z,18.70
2023-05-04T21:10:53.771Z,18.60
2023-05-04T21:14:54.996Z,18.50
2023-05-04T21:18:56.080Z,18.20
2023-05-04T21:22:57.505Z,18.10
2023-05-04T21:26:59.231Z,18.30
2023-05-04T21:31:00.543Z,18.40
2023-05-04T21:35:03.417Z,18.00
2023-05-04T21:39:04.351Z,17.60
2023-05-04T21:43:05.468Z,18.20
2023-05-04T21:47:06.632Z,18.40
2023-05-04T21:51:07.625Z,17.60
2023-05-04T21:55:08.983Z,18.00
2023-05-04T21:59:10.161Z,17.50
2023-05-04T22:03:11.114Z,18.00
2023-05-04T22:07:12.423Z,17.70
2023-05-04T22:11:13.871Z,18.40
2023-05-04T22:15:15.191Z,18.40
2023-05-04T22:19:16.166Z,18.00
2023-05-04T22:23:17.452Z,17.90
2023-05-04T22:27:18.516Z,18.10
2023-05-04T22:31:19.654Z,18.80
2023-05-04T22:35:20.930Z,18.80
2023-05-04T22:39:22.023Z,18.70
2023-05-04T22:43:23.238Z,18.30
2023-05-04T22:47:25.143Z,18.80
2023-05-04T22:51:26.769Z,18.40
2023-05-04T22:55:28.164Z,17.70
2023-05-04T22:59:30.766Z,17.10
2023-05-04T23:03:32.067Z,17.40
2023-05-04T23:07:33.226Z,17.60
2023-05-04T23:11:34.541Z,18.60
2023-05-04T23:15:35.693Z,17.80
2023-05-04T23:19:36.891Z,17.60
2023-05-04T23:23:38.047Z,18.60
2023-05-04T23:27:39.027Z,19.10
2023-05-04T23:31:40.226Z,18.00
2023-05-04T23:35:41.178Z,19.20
2023-05-04T23:39:45.547Z,18.50
2023-05-04T23:43:46.665Z,18.80
2023-05-04T23:47:47.790Z,18.50
2023-05-04T23:51:48.958Z,17.90
2023-05-04T23:55:59.724Z,18.80
